Ianis Marin

Chief Scout - Universitatea Craiova
20 Feb 2028
Sunday
Process

Personality

Adaptability (11) Ambition (8) Controversy (2) Loyalty (14) Pressure (1) Professionalism (8) Sportsmanship (14) Temperament (12)

Profile

Coaching Style Democratic
License Continental C
Determination 10
Man Management 9
Motivating 5
Discipline 11
Job Satisfaction
100%
Fatigue
0%
Role Chief Scout
Wage 58.5K p/w
Contract 14.03.2029

Performance

Behaviour Good
Training Effectiveness
40%
Player Development
25%
Injury Prevention
40%
Tactical Implementation
60%

Recent Events

Attended a recruitment meeting now
Attended a recruitment meeting 7d ago
Attended a recruitment meeting 7d ago
Attended a recruitment meeting 7d ago
Attended a recruitment meeting 14d ago
Attended a recruitment meeting 14d ago
Attended a recruitment meeting 21d ago
Presented a dossier to the board 21d ago

Currently Monitoring

345
Player Club Status Ability Confidence Watched Last Observed Latest Vote
Theo Corbeanu Toronto FC Active 127 / 137 40% 2 17.01.2028 -
Radu Negru Viitorul Lost 104 / 108 76% 1 17.01.2028 Approve
Carlos Vinícius Grêmio Active 138 / 122 40% 1 17.01.2028 -
Youssef En-Nesyri Al-Ittihad Active 141 / 143 40% 1 17.01.2028 -
Francisco González Metilli Belgrano Lost 123 / 122 40% 1 10.01.2028 -
Iñaki Larthirigoyen San Telmo Active 117 / 113 40% 1 10.01.2028 -
Rodrigo Bogarín Barracas Central Active 121 / 114 40% 1 10.01.2028 -
Lukas Jensen Millwall Active 124 / 135 40% 3 28.12.2027 -
Zion Suzuki Burnley Active 146 / 143 40% 8 28.12.2027 -
Caoimhin Kelleher Brentford Active 162 / 163 40% 7 28.12.2027 -
Nicolas Schmid Portsmouth Active 130 / 123 40% 3 27.12.2027 -
Joe Whitworth Stockport County Active 119 / 121 40% 3 27.12.2027 -
Oleksandr Kemkin Karpaty Active 127 / 127 40% 1 27.12.2027 -
Mark Travers Birmingham Active 148 / 137 40% 6 25.12.2027 -
Gabriel Batista Botafogo Active 139 / 144 40% 1 25.12.2027 -
Balázs Tóth Blackburn Rovers Active 137 / 123 40% 2 24.12.2027 -
Renzo Bacchia Racing Active 119 / 129 40% 4 24.12.2027 -
Hugo Souza Corinthians Active 149 / 128 40% 1 24.12.2027 -
Santiago Silva CFR Cluj Active 136 / 133 40% 6 23.12.2027 -
Aaron Ramsdale Southampton Active 152 / 139 40% 7 23.12.2027 -
Bento Al-Nassr Active 148 / 132 40% 2 23.12.2027 -
Radek Vítek Middlesbrough Active 146 / 134 40% 7 22.12.2027 -
Gaëtan Poussin Red Star Active 134 / 134 40% 2 22.12.2027 -
Roman Celentano FC Cincinnati Active 123 / 134 40% 8 21.12.2027 -
Niklas Steffen Thun Active 130 / 114 40% 1 21.12.2027 -
Egil Selvik Watford Active 127 / 133 40% 2 19.12.2027 -
Michael Cooper Sheffield United Active 142 / 129 40% 7 18.12.2027 -
Vanja Milinković-Savić Torino Active 145 / 140 40% 4 18.12.2027 -
Jay Gorter Pafos Active 133 / 136 40% 2 18.12.2027 -
Ľubomír Belko Viking Active 127 / 124 40% 5 16.12.2027 -
Anthony Racioppi Young Boys Active 142 / 121 40% 2 16.12.2027 -
Robin Roefs Sunderland Active 152 / 153 40% 5 10.12.2027 -
Mateusz Kochalski Dynamo Kyiv Active 138 / 135 40% 2 10.12.2027 -
Renato Solís Sporting Cristal Active 134 / 128 40% 2 10.12.2027 -
Luis Ingolotti Atlético Tucumán Active 129 / 140 40% 4 09.12.2027 -
Dayne St. Clair Inter Miami CF Active 125 / 126 40% 7 09.12.2027 -
Heorhii Yermakov Metalist Active 121 / 118 40% 1 09.12.2027 -
Arijanet Murić Sassuolo Active 142 / 152 40% 3 08.12.2027 -
Alexandr Maximenko Rubin Active 134 / 121 40% 6 08.12.2027 -
Angus Gunn San Jose Earthquakes Active 124 / 137 40% 7 07.12.2027 -
Patrick Pentz Brondby Active 134 / 132 40% 2 06.12.2027 -
Evgeny Latyshonok Nizhniy Novgorod Active 125 / 136 40% 2 06.12.2027 -
Marek Rodák Malmo FF Active 142 / 136 40% 4 05.12.2027 -
Sipho Chaine Orlando Pirates Active 130 / 134 40% 1 05.12.2027 -
James Pantemis Portland Timbers Active 116 / 117 40% 4 03.12.2027 -
Cristopher Varela Deportivo La Guaira Active 124 / 128 40% 1 03.12.2027 -
Leopold Wahlstedt Rosenborg Active 124 / 125 40% 7 02.12.2027 -
Elías Rafn Ólafsson FC Midtjylland Active 130 / 136 40% 1 02.12.2027 -
Lucas Lund Viborg Active 125 / 134 40% 1 02.12.2027 -
Patrick Schulte Columbus Crew Active 123 / 140 40% 4 01.12.2027 -
Paul Gartler Rapid Wien Active 114 / 135 40% 1 01.12.2027 -
Diego Romero Universitario Active 137 / 113 40% 7 29.11.2027 -
Facundo Cambeses Racing Club Active 129 / 144 40% 7 29.11.2027 -
Alex Palmer Norwich City Active 135 / 125 40% 6 28.11.2027 -
Josh Griffiths Bournemouth Active 135 / 121 40% 6 28.11.2027 -
Lautaro Amadé Defensa y Justicia Active 118 / 131 40% 2 27.11.2027 -
Jakub Markovič Slavia Prague Active 126 / 135 40% 2 27.11.2027 -
Gabriel Słonina Oldham Athletic Active 117 / 119 40% 3 26.11.2027 -
Stefano Gori Viktoria Plzen Active 134 / 124 40% 1 26.11.2027 -
Ivor Pandur Bolton Wanderers Active 128 / 123 40% 1 25.11.2027 -
Gaëtan Coucke Sampdoria Active 119 / 128 40% 1 25.11.2027 -
Tomáš Frühwald Bohemians 1905 Active 126 / 117 40% 1 22.11.2027 -
Nikola Vasilj Al-Diriyah Active 145 / 149 40% 2 21.11.2027 -
Drake Callender Minnesota United FC Active 118 / 137 40% 5 21.11.2027 -
Dean Henderson Crystal Palace Active 153 / 165 40% 5 19.11.2027 -
Matt Freese New York City Active 131 / 142 40% 5 17.11.2027 -
Semuel Pizzignacco Monza Active 131 / 136 40% 1 15.11.2027 -
Lukáš Horníček Newcastle United Active 154 / 150 40% 2 14.11.2027 -
Randall Rodríguez River Plate Active 123 / 133 40% 2 12.11.2027 -
Matías Borgogno San Martín SJ Active 123 / 138 40% 4 11.11.2027 -
Matouš Trmal Teplice Active 124 / 120 40% 2 11.11.2027 -
Jerónimo Pourtau Talleres Active 122 / 137 40% 8 10.11.2027 -
Abduvohid Ne'matov Nasaf Active 133 / 122 40% 2 08.11.2027 -
Peter Vindahl Sparta Prague Active 128 / 119 40% 1 08.11.2027 -
Agustín Anello Philadelphia Union Active 122 / 137 40% 2 06.11.2027 -
Emil Ceïde Rosenborg Active 135 / 128 40% 1 06.11.2027 -
André Franco Chicago Fire Active 133 / 124 40% 1 06.11.2027 -
Oleksandr Saputin Poltava Active 127 / 124 40% 2 02.11.2027 -
Cheikh Sabaly Vancouver Whitecaps Active 132 / 124 40% 2 02.11.2027 -
Brais Méndez Columbus Crew Active 153 / 156 40% 1 02.11.2027 -
Lucas Bruera Carabobo Active 125 / 128 40% 2 01.11.2027 -
Mateo Silvetti Los Angeles Football Club Active 129 / 118 40% 1 31.10.2027 -
Elias Achouri San Diego Football Club Active 126 / 119 40% 1 31.10.2027 -
Obinna Nwobodo FC Cincinnati Active 119 / 122 40% 1 31.10.2027 -
Pavel Bucha FC Cincinnati Active 135 / 117 40% 1 30.10.2027 -
Martín Ojeda Orlando City Active 141 / 128 40% 1 30.10.2027 -
Lukas Gütlbauer Wolfsberger AC Active 113 / 128 40% 1 23.10.2027 -
Duvan Rangel La Equidad Active 146 / 144 40% 2 20.10.2027 -
Antonio Galeano Remo Stars Active 125 / 125 40% 1 20.10.2027 -
Antony Portland Timbers Active 133 / 134 40% 1 20.10.2027 -
Ştefan Târnovanu FCSB Active 122 / 138 40% 5 17.10.2027 -
Diogo Costa Manchester City Active 169 / 161 40% 1 17.10.2027 -
Novak Mićović LA Galaxy Active 114 / 134 40% 4 16.10.2027 -
John Victor Crystal Palace Active 131 / 143 40% 4 14.10.2027 -
Tadeo Allende Inter Miami CF Active 134 / 123 40% 1 14.10.2027 -
André Luiz New York City Active 138 / 131 40% 1 13.10.2027 -
Guillermo Enrique Huracán Active 124 / 119 40% 1 13.10.2027 -
Youssef Maziz Colorado Rapids Active 125 / 114 40% 1 13.10.2027 -
João Virgínia Wolverhampton Active 126 / 143 40% 1 10.10.2027 -
Ralph Orquin Seattle Sounders Active 121 / 131 40% 1 10.10.2027 -
Gonzalo Abrego Godoy Cruz Active 128 / 130 40% 1 10.10.2027 -
Murphy Cooper Plymouth Argyle Active 119 / 132 40% 2 05.10.2027 -
Cristopher Fiermarin Defensa y Justicia Active 125 / 111 40% 3 03.10.2027 -
Daniel Iversen Preston Active 144 / 124 40% 1 30.09.2027 -
Daniil Khudyakov Sturm Graz Active 140 / 122 40% 1 30.09.2027 -
Oliver Petersen Dinamo Batumi Active 114 / 123 40% 4 25.09.2027 -
Martin Jedlička Banik Ostrava Active 130 / 126 40% 1 23.09.2027 -
Filip Jörgensen Chelsea Active 155 / 162 40% 2 22.09.2027 -
Max O'Leary West Bromwich Albion Active 123 / 142 40% 1 22.09.2027 -
Viktor Johansson Bristol City Active 132 / 134 40% 1 21.09.2027 -
Sol Brynn Krasnodar Active 133 / 132 40% 1 19.09.2027 -
Christian Walton Ipswich Town Active 127 / 125 40% 3 18.09.2027 -
Yuma Obata Avispa Fukuoka Active 136 / 131 40% 1 16.09.2027 -
Illan Meslier Middlesbrough Active 128 / 132 40% 1 16.09.2027 -
Brandon Austin Liverpool Active 135 / 128 40% 2 15.09.2027 -
Marcus Bundgaard SonderjyskE Active 126 / 113 40% 1 15.09.2027 -
George Wickens Lincoln City Active 129 / 110 40% 3 14.09.2027 -
Anton Mitryushkin Lokomotiv Moscow Active 121 / 117 40% 1 14.09.2027 -
John Pulskamp Sporting Kansas City Active 122 / 126 40% 2 10.09.2027 -
Maduka Okoye Udinese Active 144 / 146 40% 4 08.09.2027 -
James Trafford Leeds United Active 141 / 161 40% 2 02.09.2027 -
Fabrizio Correa Montevideo City Torque Active 120 / 108 40% 1 02.09.2027 -
Samu Maccabi Netanya Active 111 / 105 40% 2 21.08.2027 -
Riccardo Gagno Vicenza Active 125 / 134 40% 2 20.08.2027 -
Iván Arboleda Sarmiento Active 114 / 115 40% 2 19.08.2027 -
Omri Glazer Maccabi Haifa Active 139 / 129 40% 2 16.08.2027 -
Assaf Tzur Hapoel Tel Aviv Active 127 / 107 40% 1 07.08.2027 -
Jonathan Klinsmann Cesena Active 137 / 118 40% 1 30.07.2027 -
Aynsley Pears Blackburn Rovers Active 123 / 124 40% 1 25.07.2027 -
Milan van Ewijk Mansfield Town Active 131 / 140 40% 5 15.06.2027 -
Kasey McAteer Ipswich Town Active 124 / 118 40% 1 15.06.2027 -
Bertrand Traoré Sunderland Active 128 / 127 40% 1 01.06.2027 -
Aidan Morris Middlesbrough Active 131 / 127 40% 3 31.05.2027 -
Jason Knight Bristol City Active 136 / 125 40% 2 31.05.2027 -
Idrissa Touré Monza Active 128 / 147 40% 1 31.05.2027 -
Kazunari Kita Real Sociedad Active 90 / 103 40% 2 30.05.2027 -
Mpho Khethang AS Police Active 81 / 89 40% 1 30.05.2027 -
Jay Matete Milton Keynes Dons Active 117 / 113 40% 1 29.05.2027 -
Harvey White Stevenage Active 122 / 111 40% 1 29.05.2027 -
Ethan Williams Peterborough United Active 123 / 122 40% 4 28.05.2027 -
Chem Campbell Stevenage Active 112 / 123 40% 2 28.05.2027 -
Christian Saydee Wigan Athletic Active 119 / 104 40% 2 28.05.2027 -
Isaiah Jones Luton Town Active 124 / 109 40% 7 25.05.2027 -
Xavier Amaechi Plymouth Argyle Active 111 / 109 40% 3 24.05.2027 -
Paddy Lane Reading Active 119 / 98 40% 2 24.05.2027 -
Darlin Yongwa Norwich City Active 135 / 116 40% 3 23.05.2027 -
Alfie Doughty Millwall Active 136 / 117 40% 1 23.05.2027 -
Kelly Saravanan Salford City Active 106 / 118 40% 2 22.05.2027 -
Christos Mouzakitis Hull City Active 122 / 140 40% 3 22.05.2027 -
Christ Inao Oulaï Fiorentina Active 139 / 141 40% 2 22.05.2027 -
Tyreece Campbell Charlton Athletic Active 120 / 129 40% 4 20.05.2027 -
Jack Moylan Lincoln City Active 112 / 117 40% 1 20.05.2027 -
Jack Diamond Stockport County Active 116 / 125 40% 3 19.05.2027 -
Richard Koné Queens Park Rangers Active 114 / 112 40% 5 17.05.2027 -
Melker Widell Swansea City Active 118 / 134 40% 1 17.05.2027 -
Derensili Sanches Fernandes Huddersfield Town Active 118 / 111 40% 3 16.05.2027 -
Malik Mothersille Stockport County Active 112 / 124 40% 3 15.05.2027 -
Daniel Kelly Oxford United Active 106 / 112 40% 1 15.05.2027 -
Juan Mosquera Sheffield Wednesday Active 132 / 135 40% 2 12.05.2027 -
Adam Randell Bristol City Active 130 / 139 40% 2 11.05.2027 -
Josh Edwards Charlton Athletic Active 127 / 107 40% 2 11.05.2027 -
Stanley Mills Oxford United Active 124 / 117 40% 7 09.05.2027 -
Aaron Morley Wycombe Wanderers Active 117 / 123 40% 1 09.05.2027 -
Eom Ji-Sung Swansea City Active 116 / 112 40% 1 09.05.2027 -
Daniel Vernattus Metalist Active 94 / 104 40% 1 09.05.2027 -
Juan Giménez Celta Active 109 / 133 40% 1 09.05.2027 -
Zaïd BafdilI Sporting CP Active 86 / 88 40% 1 09.05.2027 -
Mandla Erasmus SuperSport United Active 122 / 125 40% 4 07.05.2027 -
Leif Davis Ipswich Town Active 145 / 130 40% 3 06.05.2027 -
Tyrese Campbell Sheffield United Active 138 / 138 40% 1 06.05.2027 -
Kwame Poku Queens Park Rangers Active 114 / 112 40% 4 05.05.2027 -
Joseph Hungbo Wigan Athletic Active 116 / 97 40% 4 05.05.2027 -
Zak Swanson Bradford City Active 126 / 120 40% 2 04.05.2027 -
Idris El Mizouni Leyton Orient Active 118 / 114 40% 2 03.05.2027 -
Williams Manyama SuperSport United Active 126 / 106 40% 4 02.05.2027 -
Dennis Cirkin Queens Park Rangers Active 137 / 125 40% 1 02.05.2027 -
Matteo Pérez Vinlöf Dinamo Zagreb Active 125 / 126 40% 1 01.05.2027 -
Adam Bakoune Ospitaletto Active 90 / 96 40% 1 01.05.2027 -
Isaac Price West Bromwich Albion Active 134 / 123 40% 4 29.04.2027 -
Tshepang Moremi Orlando Pirates Active 120 / 124 40% 6 26.04.2027 -
Tyler Goodrham Oxford United Active 133 / 126 40% 3 25.04.2027 -
Othmane Maamma Watford Active 127 / 141 40% 4 25.04.2027 -
George Hall Port Vale Active 117 / 113 40% 1 24.04.2027 -
Harry Leonard Peterborough United Active 98 / 114 40% 1 23.04.2027 -
Stiven Shpendi Empoli Active 121 / 109 40% 1 23.04.2027 -
Ronald Swansea City Active 134 / 120 40% 3 21.04.2027 -
Dylan Lawlor Cardiff City Active 121 / 118 40% 3 21.04.2027 -
Danyil Alefirenko Chornomorets Active 111 / 114 40% 1 21.04.2027 -
Caleb Yirenkyi Coventry City Active 145 / 152 40% 2 20.04.2027 -
Taras Mykhavko Dynamo Kyiv Active 132 / 131 40% 1 20.04.2027 -
Matías Gómez Granada Active 121 / 131 40% 1 19.04.2027 -
Mduduzi Shabalala Kaizer Chiefs Active 113 / 109 40% 3 17.04.2027 -
Paris Maghoma Norwich City Active 123 / 136 40% 1 17.04.2027 -
Sam Bell Bristol City Active 115 / 111 40% 1 17.04.2027 -
David Turnbull Cardiff City Active 124 / 131 40% 5 16.04.2027 -
Sebastián Arce Rodina Active 113 / 109 40% 1 16.04.2027 -
Dylan Levitt Leyton Orient Active 122 / 127 40% 1 15.04.2027 -
Abu Kamara Portsmouth Active 117 / 123 40% 2 14.04.2027 -
Santiago Pierotti Lecce Active 140 / 120 40% 1 14.04.2027 -
Cian Ashford Cardiff City Active 125 / 117 40% 3 12.04.2027 -
George Earthy Reading Active 107 / 118 40% 1 12.04.2027 -
Petar Stanić Ludogorets Active 139 / 126 40% 4 11.04.2027 -
Justin Devenny Stoke City Active 129 / 135 40% 1 11.04.2027 -
Scott Twine Bristol City Active 129 / 121 40% 3 10.04.2027 -
Siyanda Ndlovu Bloemfontein Celtic Active 108 / 121 40% 2 07.04.2027 -
Tomáš Rigo Stoke City Active 124 / 123 40% 2 05.04.2027 -
Felix Afful Liberty Professionals Active 87 / 79 40% 2 05.04.2027 -
Konta Ismaily Active 91 / 106 40% 1 05.04.2027 -
Ernie Weaver AFC Wimbledon Active 98 / 123 40% 1 05.04.2027 -
Andrea Colpani Monza Active 144 / 141 40% 1 03.04.2027 -
Edoardo Bove Watford Active 123 / 121 40% 1 03.04.2027 -
Caolan Boyd-Munce Wycombe Wanderers Active 130 / 117 40% 3 02.04.2027 -
Mathias Jørgensen Blackburn Rovers Active 110 / 128 40% 3 02.04.2027 -
Pelle Mattsson Norwich City Active 122 / 122 40% 1 02.04.2027 -
Josh Tymon Swansea City Active 119 / 136 40% 3 01.04.2027 -
Oswin Appollis Orlando Pirates Active 133 / 111 40% 5 30.03.2027 -
Ollie Tanner Cardiff City Active 116 / 115 40% 4 29.03.2027 -
Lewis Bate Stockport County Active 115 / 112 40% 1 29.03.2027 -
Nazar Voloshyn Dynamo Kyiv Active 124 / 123 40% 2 27.03.2027 -
Derry Murkin Derby County Active 137 / 116 40% 2 27.03.2027 -
Jan Bürger Gillingham Active 115 / 107 40% 3 27.03.2027 -
Luciano Peluso Giugliano Active 94 / 107 40% 1 27.03.2027 -
Martim Cunha Porto Active 101 / 95 40% 1 26.03.2027 -
David Ozoh Derby County Active 117 / 121 40% 1 26.03.2027 -
Marcelo Allende Mamelodi Sundowns Active 144 / 116 40% 4 24.03.2027 -
Kellen Fisher Norwich City Active 126 / 114 40% 1 23.03.2027 -
Petr Juliš Slovan Liberec Active 113 / 107 40% 1 20.03.2027 -
Bosun Lawal Stoke City Active 118 / 130 40% 1 19.03.2027 -
Vasilije Novičić IMT Active 97 / 108 40% 1 19.03.2027 -
Mikey Johnston West Bromwich Albion Active 112 / 106 40% 2 15.03.2027 -
Jacques Ekomié Wrexham Active 137 / 118 40% 1 14.03.2027 -
Alex Robertson Cardiff City Active 112 / 135 40% 2 11.03.2027 -
Giorgi Chakvetadze Watford Active 138 / 131 40% 1 06.03.2027 -
Keagan Tau Ajax Cape Town Active 103 / 87 40% 1 06.03.2027 -
David Atiemo Liberty Professionals Active 84 / 94 40% 1 06.03.2027 -
Fuzy Taylor Medeama Active 79 / 88 40% 1 06.03.2027 -
Cathal Heffernan Harrogate Town Active 84 / 87 40% 1 04.03.2027 -
Dmitry Pestryakov Dinamo Moscow Active 107 / 118 40% 1 04.03.2027 -
James Dornelly Peterborough United Active 98 / 100 40% 1 01.03.2027 -
Keagan Phiri Platinum Stars Active 96 / 107 40% 1 01.03.2027 -
Mfundo Vilakazi Kaizer Chiefs Active 109 / 121 40% 1 21.02.2027 -
Christian Krasnodar Active 139 / 139 40% 2 20.02.2027 -
Koki Saito Queens Park Rangers Active 136 / 110 40% 1 19.02.2027 -
Alessio Zerbin Frosinone Active 139 / 123 40% 1 17.02.2027 -
Andre Brooks Sheffield United Active 127 / 128 40% 1 16.02.2027 -
Daniel Kyerewaa Reading Active 114 / 102 40% 2 12.02.2027 -
Jack Rudoni Coventry City Active 142 / 137 40% 1 12.02.2027 -
Zeidane Inoussa Swansea City Active 111 / 108 40% 1 08.02.2027 -
Jack Currie Oxford United Active 118 / 120 40% 1 08.02.2027 -
Bongani Modiba Black Aces Active 120 / 118 40% 1 05.02.2027 -
Reda Khadra Qarabag Active 140 / 133 40% 1 03.02.2027 -
Andrea Carboni Monza Active 138 / 141 40% 1 03.01.2027 -
Álex Centelles Levski Active 124 / 113 40% 1 02.01.2027 -
Williams Yikat Aigle Royal de Moungo Active 82 / 93 40% 2 01.01.2027 -
Dramane Kamagaté USM Alger Active 99 / 115 40% 1 01.01.2027 -
Axel Kayombo Sturm Graz Active 110 / 105 40% 1 01.01.2027 -
Lewis Morgan SuperSport United Active 136 / 111 40% 1 31.12.2026 -
Robert Mizo Ashanti Gold Active 107 / 111 40% 4 30.12.2026 -
Jean Galindo Imotski Active 79 / 95 40% 2 30.12.2026 -
Martin Sekulić Ural Active 118 / 107 40% 1 30.12.2026 -
Jacques Siwe Rubin Active 110 / 109 40% 2 28.12.2026 -
Yeangel Montero Naxxar Lions Active 103 / 110 40% 1 28.12.2026 -
Jonás Luna Santa Clara Active 123 / 127 40% 4 25.12.2026 -
Luke Baartman ES Mostaganem Active 100 / 97 40% 2 25.12.2026 -
Wendell Livyi Bereh Active 86 / 100 40% 2 24.12.2026 -
Alagie Wally Veres Active 93 / 97 40% 1 24.12.2026 -
Ben Ahmed Kohili Paradou Active 90 / 120 40% 1 24.12.2026 -
Darlvin Yeboah Bechem United Active 86 / 82 40% 2 23.12.2026 -
Mandla Mahlangu Ajax Cape Town Active 111 / 108 40% 4 21.12.2026 -
Mattia Felici Cagliari Active 127 / 135 40% 1 19.12.2026 -
Vyacheslav Grulev Nizhniy Novgorod Active 111 / 122 40% 1 18.12.2026 -
Luka Kurtovic NK Domzale Active 129 / 122 40% 2 17.12.2026 -
Breel Embolo Atlanta United FC Active 128 / 149 40% 3 17.12.2026 Monitor
Nicolás Cordero Aldosivi Active 114 / 104 40% 1 16.12.2026 -
Brayan León Mamelodi Sundowns Active 122 / 99 40% 1 14.12.2026 -
Agustín Módica Gimnasia y Esgrima Active 117 / 111 40% 1 14.12.2026 -
Kabu Agyemang Raymond Bechem United Active 72 / 86 40% 1 14.12.2026 -
Milán Tóth Vasas Active 111 / 98 40% 2 12.12.2026 -
Kévin Denkey FC Cincinnati Active 116 / 111 40% 1 12.12.2026 -
Themba Ngcobo SuperSport United Active 125 / 100 40% 2 11.12.2026 -
Chinedu Geoffrey Krylya Sovetov Active 111 / 112 40% 1 10.12.2026 -
Evidence Makgopa Orlando Pirates Active 109 / 102 40% 3 09.12.2026 -
David Kalokoh Ajax Active 119 / 117 40% 2 08.12.2026 -
Aidomo Emakhu Oxford United Active 130 / 112 40% 1 08.12.2026 Needs More Info
Lévy Néne FC Nordsjaelland Active 106 / 121 40% 1 08.12.2026 -
Victor Adeboyejo Ismaily Active 104 / 121 40% 1 04.12.2026 -
Jonás Acevedo Instituto Active 119 / 126 40% 1 03.12.2026 -
Ramiro Ruiz Rodríguez Atlético Tucumán Active 133 / 129 40% 1 30.11.2026 -
Thiago Salischiker Rucci HNK Vukovar 1991 Active 96 / 98 40% 1 30.11.2026 -
Marko Brkić NK Krka Active 83 / 98 40% 1 30.11.2026 -
Alexis Cuello San Lorenzo Active 128 / 122 40% 1 27.11.2026 -
Bénie Traoré New York City Active 120 / 125 40% 2 26.11.2026 -
Leon Grgić Sturm Graz Active 126 / 139 40% 1 22.11.2026 -
Andrei Dumitru Botosani Active 83 / 94 40% 2 21.11.2026 -
Hassan Beja AFC Leopards Active 80 / 79 40% 4 20.11.2026 -
Fletcher Holman Swindon Town Active 80 / 102 40% 1 20.11.2026 -
Peter Christiansen Viking Active 111 / 132 40% 1 17.11.2026 -
Dejan Joveljić Seattle Sounders Active 125 / 111 40% 1 17.11.2026 -
Miloš Jovičić Zabbar St. Patrick Active 81 / 80 40% 1 15.11.2026 -
Sam Surridge Nashville SC Active 135 / 138 40% 1 10.11.2026 -
Stephen Humphrys Bradford City Active 111 / 125 40% 2 09.11.2026 -
Maurits Kjærgaard Red Bull Salzburg Active 129 / 137 40% 1 09.11.2026 -
Krisztofer Horváth Ujpest Active 118 / 112 40% 1 08.11.2026 -
Brandon Vázquez Austin FC Active 108 / 108 40% 1 07.11.2026 -
Daniel Karlsbakk Sarpsborg 08 Active 134 / 110 40% 1 07.11.2026 -
Danil Glebov Dinamo Moscow Active 129 / 131 40% 2 06.11.2026 -
Bradley Tau SuperSport United Active 121 / 126 40% 1 06.11.2026 -
Leonardo Campana New England Revolution Active 133 / 116 40% 1 05.11.2026 -
Tio Cipot NK Maribor Active 122 / 121 40% 1 02.11.2026 -
Ruben van Bommel Ferencvaros Active 134 / 123 40% 1 02.11.2026 -
Alasana Yirajang AS Trencin Active 105 / 115 40% 4 01.11.2026 -
Chineme Chinonso Ikorodu City Active 98 / 89 40% 3 30.10.2026 -
Adama Goïta Remo Stars Active 90 / 102 40% 2 26.10.2026 -
Agustín Fernández NK Zavrc Active 81 / 89 40% 1 26.10.2026 -
Nikolay Zlatev Cherno More Active 106 / 112 40% 2 23.10.2026 -
Maximo Ingravidi Colón Active 86 / 95 40% 1 21.10.2026 -
Csanád Vilmos Dénes Debrecen Active 105 / 113 40% 1 20.10.2026 -
Tomás Romero Unión de Santa Fe Active 90 / 116 40% 2 19.10.2026 -
Matvii Ponomarenko Dynamo Kyiv Active 119 / 120 40% 1 16.10.2026 -
Alan Cisnero Shukura Active 93 / 110 40% 1 16.10.2026 -
Luca Bărbulescu KuPS Active 85 / 92 40% 3 15.10.2026 -
Nikita Kuzin Kaluga Active 75 / 84 40% 1 14.10.2026 -
Mohammed Yahaya Great Olympics Active 89 / 96 40% 1 12.10.2026 -
Kaio Eduardo Thun Active 110 / 123 40% 3 10.10.2026 -
Andrey Domotsev Mashuk Active 84 / 88 40% 1 10.10.2026 -
Andrei Mărginean Dinamo Bucharest Active 105 / 107 40% 1 08.10.2026 -
Simão Rocha CFR Cluj Active 128 / 127 40% 1 08.10.2026 -
Facundo Miño Deportivo Riestra Active 112 / 119 40% 1 05.10.2026 -
Abubakar Garba Grasshopper Active 79 / 88 40% 1 29.09.2026 -
Tobías Ganduglia Independiente Rivadavia Active 81 / 109 40% 1 27.09.2026 -
Bautista Pereira Danubio Active 101 / 105 40% 1 22.09.2026 -
Jere Vrcić Birkirkara Active 87 / 109 40% 2 18.09.2026 -
Branco Ripoll Aldosivi Active 80 / 98 40% 1 16.09.2026 -
Ewan Henderson Wycombe Wanderers Active 105 / 119 40% 1 12.09.2026 -
Alexandr Chernikov Krasnodar Active 125 / 122 40% 1 12.09.2026 -
Chinedu Onyinjekwu Bayelsa United Active 86 / 100 40% 1 11.09.2026 -
Thiago Ponce Rosario Central Active 103 / 112 40% 1 10.09.2026 -
Bruno Morales Cerro Active 102 / 95 40% 1 10.09.2026 -
Lucas Souto Defensa y Justicia Active 119 / 134 40% 1 08.09.2026 -
Delvin Alfonzo Deportivo Tachira Active 125 / 130 40% 1 08.09.2026 -
Conrad Wallem Austria Wien Active 134 / 130 40% 1 07.09.2026 -
Joel Latibeaudiere Coventry City Active 107 / 105 40% 1 07.09.2026 -
Michael Svoboda Brighton Active 116 / 119 40% 1 07.09.2026 -
Nobel Mendy Hull City Active 121 / 126 40% 1 02.08.2026 -
Jack Fletcher Manchester United Active 103 / 98 40% 1 02.08.2026 -